Time,TemperatureF,DewpointF,PressureIn,WindDirection,WindDirectionDegrees,WindSpeedMPH,WindSpeedGustMPH,Humidity,HourlyPrecipIn,Conditions,Clouds,dailyrainin,SoftwareType,DateUTC
2013-02-05 00:10:00,47.1,44.0,30.06,ENE,75,1.0,5.0,87,0.00,,,0.00,weatherlink.com 1.10,2013-02-05 08:10:00,
2013-02-05 00:25:00,46.9,43.0,30.07,ENE,57,0.0,3.0,87,0.00,,,0.00,weatherlink.com 1.10,2013-02-05 08:25:00,
2013-02-05 00:40:00,47.3,43.0,30.06,NNW,347,1.0,7.0,86,0.00,,,0.00,weatherlink.com 1.10,2013-02-05 08:40:00,
2013-02-05 00:55:00,47.6,44.0,30.06,ENE,78,1.0,6.0,86,0.00,,,0.00,weatherlink.com 1.10,2013-02-05 08:55:00,
2013-02-05 01:10:00,47.7,44.0,30.06,NNE,32,1.0,5.0,86,0.00,,,0.00,weatherlink.com 1.10,2013-02-05 09:10:00,
2013-02-05 01:25:00,47.9,44.0,30.06,North,358,1.0,6.0,85,0.00,,,0.00,weatherlink.com 1.10,2013-02-05 09:25:00,
2013-02-05 01:40:00,47.9,43.0,30.06,North,8,4.0,5.0,84,0.00,,,0.00,weatherlink.com 1.10,2013-02-05 09:40:00,
2013-02-05 01:55:00,47.8,43.0,30.06,NNE,30,0.0,6.0,83,0.00,,,0.00,weatherlink.com 1.10,2013-02-05 09:55:00,
2013-02-05 02:10:00,47.1,43.0,30.06,NE,50,3.0,3.0,84,0.00,,,0.00,weatherlink.com 1.10,2013-02-05 10:10:00,
2013-02-05 02:25:00,46.6,42.0,30.05,ENE,78,0.0,2.0,84,0.00,,,0.00,weatherlink.com 1.10,2013-02-05 10:25:00,
2013-02-05 02:40:00,45.6,42.0,30.05,ENE,77,0.0,1.0,86,0.00,,,0.00,weatherlink.com 1.10,2013-02-05 10:40:00,
2013-02-05 02:55:00,45.6,42.0,30.05,ENE,68,0.0,2.0,87,0.00,,,0.00,weatherlink.com 1.10,2013-02-05 10:55:00,
2013-02-05 03:11:00,46.7,42.0,30.05,ENE,69,3.0,5.0,84,0.00,,,0.00,weatherlink.com 1.10,2013-02-05 11:11:00,
2013-02-05 03:26:00,47.0,42.0,30.05,NNE,20,2.0,4.0,84,0.00,,,0.00,weatherlink.com 1.10,2013-02-05 11:26:00,
2013-02-05 03:41:00,47.2,42.0,30.04,NNE,32,0.0,3.0,83,0.00,,,0.00,weatherlink.com 1.10,2013-02-05 11:41:00,
2013-02-05 03:56:00,47.2,43.0,30.04,East,91,0.0,4.0,84,0.00,,,0.00,weatherlink.com 1.10,2013-02-05 11:56:00,
2013-02-05 04:11:00,47.3,42.0,30.04,NNE,21,0.0,4.0,83,0.00,,,0.00,weatherlink.com 1.10,2013-02-05 12:11:00,
2013-02-05 04:26:00,47.4,43.0,30.04,NNE,22,1.0,5.0,83,0.00,,,0.00,weatherlink.com 1.10,2013-02-05 12:26:00,
2013-02-05 04:41:00,47.5,42.0,30.04,NE,53,1.0,4.0,82,0.00,,,0.00,weatherlink.com 1.10,2013-02-05 12:41:00,
2013-02-05 04:56:00,47.7,42.0,30.04,ESE,111,0.0,5.0,81,0.00,,,0.00,weatherlink.com 1.10,2013-02-05 12:56:00,
2013-02-05 05:11:00,47.8,42.0,30.04,NNE,14,0.0,6.0,80,0.00,,,0.00,weatherlink.com 1.10,2013-02-05 13:11:00,
2013-02-05 05:26:00,47.7,42.0,30.04,NE,54,0.0,2.0,80,0.00,,,0.00,weatherlink.com 1.10,2013-02-05 13:26:00,
2013-02-05 05:41:00,47.8,42.0,30.03,NNE,20,3.0,6.0,79,0.00,,,0.00,weatherlink.com 1.10,2013-02-05 13:41:00,
2013-02-05 05:56:00,47.7,42.0,30.03,NNE,15,0.0,5.0,79,0.00,,,0.00,weatherlink.com 1.10,2013-02-05 13:56:00,
2013-02-05 06:11:00,47.7,42.0,30.04,ENE,60,5.0,6.0,80,0.00,,,0.00,weatherlink.com 1.10,2013-02-05 14:11:00,
2013-02-05 06:26:00,47.8,42.0,30.04,NNE,15,1.0,4.0,80,0.00,,,0.00,weatherlink.com 1.10,2013-02-05 14:26:00,
2013-02-05 06:41:00,47.8,42.0,30.04,North,1,2.0,6.0,80,0.00,,,0.00,weatherlink.com 1.10,2013-02-05 14:41:00,
2013-02-05 06:56:00,47.7,42.0,30.04,NE,37,0.0,3.0,81,0.00,,,0.00,weatherlink.com 1.10,2013-02-05 14:56:00,
2013-02-05 07:11:00,47.6,42.0,30.04,NE,34,1.0,1.0,81,0.00,,,0.00,weatherlink.com 1.10,2013-02-05 15:11:00,
2013-02-05 07:26:00,47.6,42.0,30.04,ENE,63,2.0,5.0,80,0.00,,,0.00,weatherlink.com 1.10,2013-02-05 15:26:00,
2013-02-05 07:41:00,47.5,42.0,30.04,NNE,21,0.0,6.0,81,0.00,,,0.00,weatherlink.com 1.10,2013-02-05 15:41:00,
2013-02-05 07:56:00,47.6,42.0,30.05,SW,223,0.0,2.0,82,0.00,,,0.00,weatherlink.com 1.10,2013-02-05 15:56:00,
2013-02-05 08:11:00,47.5,42.0,30.06,North,354,1.0,4.0,81,0.00,,,0.00,weatherlink.com 1.10,2013-02-05 16:11:00,
2013-02-05 08:26:00,48.0,43.0,30.06,NNW,345,0.0,3.0,82,0.00,,,0.00,weatherlink.com 1.10,2013-02-05 16:26:00,
2013-02-05 08:41:00,48.5,43.0,30.07,NW,321,2.0,3.0,82,0.00,,,0.00,weatherlink.com 1.10,2013-02-05 16:41:00,
2013-02-05 08:56:00,48.2,43.0,30.07,NE,42,1.0,4.0,82,0.00,,,0.00,weatherlink.com 1.10,2013-02-05 16:56:00,
2013-02-05 09:11:00,48.3,43.0,30.07,North,356,0.0,2.0,82,0.00,,,0.00,weatherlink.com 1.10,2013-02-05 17:11:00,
2013-02-05 09:26:00,48.5,43.0,30.07,NNE,31,1.0,5.0,82,0.00,,,0.00,weatherlink.com 1.10,2013-02-05 17:26:00,
2013-02-05 09:41:00,48.9,43.0,30.07,NNE,12,3.0,7.0,81,0.00,,,0.00,weatherlink.com 1.10,2013-02-05 17:41:00,
2013-02-05 09:56:00,49.8,44.0,30.07,ENE,77,1.0,5.0,79,0.00,,,0.00,weatherlink.com 1.10,2013-02-05 17:56:00,
2013-02-05 10:11:00,50.9,44.0,30.07,ENE,63,4.0,4.0,77,0.00,,,0.00,weatherlink.com 1.10,2013-02-05 18:11:00,
2013-02-05 10:26:00,51.8,44.0,30.07,ENE,61,1.0,4.0,75,0.00,,,0.00,weatherlink.com 1.10,2013-02-05 18:26:00,
2013-02-05 10:41:00,52.6,45.0,30.07,NNW,338,0.0,4.0,74,0.00,,,0.00,weatherlink.com 1.10,2013-02-05 18:41:00,
2013-02-05 10:56:00,53.8,45.0,30.07,NNE,14,1.0,6.0,71,0.00,,,0.00,weatherlink.com 1.10,2013-02-05 18:56:00,
2013-02-05 11:11:00,54.0,45.0,30.07,NNE,19,1.0,8.0,71,0.00,,,0.00,weatherlink.com 1.10,2013-02-05 19:11:00,
2013-02-05 11:26:00,54.2,45.0,30.07,ENE,67,2.0,6.0,72,0.00,,,0.00,weatherlink.com 1.10,2013-02-05 19:26:00,
2013-02-05 11:41:00,54.1,45.0,30.07,NNE,30,4.0,10.0,72,0.00,,,0.00,weatherlink.com 1.10,2013-02-05 19:41:00,
2013-02-05 11:56:00,54.4,46.0,30.06,ESE,106,0.0,10.0,72,0.00,,,0.00,weatherlink.com 1.10,2013-02-05 19:56:00,
2013-02-05 12:11:00,55.6,46.0,30.05,NNW,331,5.0,9.0,71,0.00,,,0.00,weatherlink.com 1.10,2013-02-05 20:11:00,
2013-02-05 12:27:00,56.2,47.0,30.04,NNW,341,0.0,10.0,70,0.00,,,0.00,weatherlink.com 1.10,2013-02-05 20:27:00,
2013-02-05 12:42:00,57.4,47.0,30.04,NNE,27,4.0,8.0,68,0.00,,,0.00,weatherlink.com 1.10,2013-02-05 20:42:00,
2013-02-05 12:57:00,58.0,47.0,30.03,NNW,333,3.0,11.0,67,0.00,,,0.00,weatherlink.com 1.10,2013-02-05 20:57:00,
2013-02-05 13:12:00,57.9,47.0,30.03,ENE,77,2.0,8.0,68,0.00,,,0.00,weatherlink.com 1.10,2013-02-05 21:12:00,
2013-02-05 13:27:00,57.4,47.0,30.02,WNW,283,0.0,9.0,68,0.00,,,0.00,weatherlink.com 1.10,2013-02-05 21:27:00,
2013-02-05 13:42:00,57.1,47.0,30.02,ENE,70,5.0,11.0,69,0.00,,,0.00,weatherlink.com 1.10,2013-02-05 21:42:00,
2013-02-05 13:57:00,57.4,47.0,30.02,ENE,71,3.0,8.0,69,0.00,,,0.00,weatherlink.com 1.10,2013-02-05 21:57:00,
2013-02-05 14:12:00,57.0,46.0,30.02,NE,38,5.0,12.0,68,0.00,,,0.00,weatherlink.com 1.10,2013-02-05 22:12:00,
2013-02-05 14:27:00,57.2,47.0,30.01,ENE,59,7.0,11.0,68,0.00,,,0.00,weatherlink.com 1.10,2013-02-05 22:27:00,
2013-02-05 14:42:00,57.7,47.0,30.01,North,355,4.0,11.0,68,0.00,,,0.00,weatherlink.com 1.10,2013-02-05 22:42:00,
2013-02-05 14:57:00,57.6,47.0,30.02,ENE,70,4.0,10.0,69,0.00,,,0.00,weatherlink.com 1.10,2013-02-05 22:57:00,
2013-02-05 15:27:00,57.4,47.0,30.03,ESE,117,4.0,8.0,69,0.00,,,0.00,weatherlink.com 1.10,2013-02-05 23:27:00,
2013-02-05 15:42:00,56.9,47.0,30.03,North,354,1.0,9.0,70,0.00,,,0.00,weatherlink.com 1.10,2013-02-05 23:42:00,
2013-02-05 15:57:00,56.2,47.0,30.03,ENE,64,2.0,9.0,71,0.00,,,0.00,weatherlink.com 1.10,2013-02-05 23:57:00,
2013-02-05 16:12:00,55.9,47.0,30.03,NE,36,0.0,10.0,72,0.00,,,0.00,weatherlink.com 1.10,2013-02-06 00:12:00,
2013-02-05 16:27:00,55.8,47.0,30.04,North,352,3.0,7.0,73,0.00,,,0.00,weatherlink.com 1.10,2013-02-06 00:27:00,
2013-02-05 16:42:00,54.9,47.0,30.04,NE,37,0.0,6.0,75,0.00,,,0.00,weatherlink.com 1.10,2013-02-06 00:42:00,
2013-02-05 16:57:00,54.3,47.0,30.04,East,97,0.0,4.0,77,0.00,,,0.00,weatherlink.com 1.10,2013-02-06 00:57:00,
2013-02-05 17:12:00,53.5,47.0,30.04,East,86,1.0,6.0,79,0.00,,,0.00,weatherlink.com 1.10,2013-02-06 01:12:00,
2013-02-05 17:27:00,52.8,47.0,30.04,ENE,75,3.0,7.0,81,0.00,,,0.00,weatherlink.com 1.10,2013-02-06 01:27:00,
2013-02-05 17:42:00,52.1,47.0,30.04,NE,52,1.0,3.0,82,0.00,,,0.00,weatherlink.com 1.10,2013-02-06 01:42:00,
2013-02-05 17:57:00,51.4,46.0,30.05,ENE,70,2.0,6.0,83,0.00,,,0.00,weatherlink.com 1.10,2013-02-06 01:57:00,
2013-02-05 18:12:00,50.8,46.0,30.05,NE,44,0.0,3.0,84,0.00,,,0.00,weatherlink.com 1.10,2013-02-06 02:12:00,
2013-02-05 18:27:00,50.2,46.0,30.05,NE,55,4.0,5.0,85,0.00,,,0.00,weatherlink.com 1.10,2013-02-06 02:27:00,
2013-02-05 18:42:00,49.8,46.0,30.05,ENE,60,4.0,6.0,85,0.00,,,0.00,weatherlink.com 1.10,2013-02-06 02:42:00,
2013-02-05 18:57:00,49.1,45.0,30.05,ENE,76,0.0,4.0,86,0.00,,,0.00,weatherlink.com 1.10,2013-02-06 02:57:00,
2013-02-05 19:12:00,49.0,45.0,30.06,ENE,61,3.0,5.0,87,0.00,,,0.00,weatherlink.com 1.10,2013-02-06 03:12:00,
2013-02-05 19:27:00,49.0,45.0,30.06,ENE,64,2.0,4.0,86,0.00,,,0.00,weatherlink.com 1.10,2013-02-06 03:27:00,
2013-02-05 19:42:00,48.9,45.0,30.07,ENE,75,0.0,4.0,87,0.00,,,0.00,weatherlink.com 1.10,2013-02-06 03:42:00,
2013-02-05 19:57:00,48.8,45.0,30.07,NE,51,0.0,3.0,86,0.00,,,0.00,weatherlink.com 1.10,2013-02-06 03:57:00,
2013-02-05 20:12:00,48.0,44.0,30.07,NNE,18,0.0,2.0,87,0.00,,,0.00,weatherlink.com 1.10,2013-02-06 04:12:00,
2013-02-05 20:27:00,48.4,44.0,30.07,NE,41,4.0,7.0,84,0.00,,,0.00,weatherlink.com 1.10,2013-02-06 04:27:00,
2013-02-05 20:42:00,48.4,44.0,30.07,SSE,160,0.0,5.0,83,0.00,,,0.00,weatherlink.com 1.10,2013-02-06 04:42:00,
2013-02-05 20:57:00,47.6,43.0,30.08,WSW,248,0.0,1.0,85,0.00,,,0.00,weatherlink.com 1.10,2013-02-06 04:57:00,
2013-02-05 21:12:00,47.1,43.0,30.08,ENE,57,2.0,3.0,84,0.00,,,0.00,weatherlink.com 1.10,2013-02-06 05:12:00,
2013-02-05 21:27:00,47.1,42.0,30.09,SW,234,0.0,3.0,83,0.00,,,0.00,weatherlink.com 1.10,2013-02-06 05:27:00,
2013-02-05 21:42:00,46.3,41.0,30.09,SW,230,0.0,1.0,83,0.00,,,0.00,weatherlink.com 1.10,2013-02-06 05:42:00,
2013-02-05 21:57:00,45.3,41.0,30.09,SSW,198,0.0,0.0,85,0.00,,,0.00,weatherlink.com 1.10,2013-02-06 05:57:00,
2013-02-05 22:12:00,44.5,41.0,30.10,WSW,247,0.0,1.0,87,0.00,,,0.00,weatherlink.com 1.10,2013-02-06 06:12:00,
2013-02-05 22:27:00,45.3,41.0,30.10,North,9,1.0,3.0,86,0.00,,,0.00,weatherlink.com 1.10,2013-02-06 06:27:00,
2013-02-05 22:42:00,44.8,41.0,30.10,WNW,287,0.0,1.0,87,0.00,,,0.00,weatherlink.com 1.10,2013-02-06 06:42:00,
2013-02-05 22:57:00,44.1,41.0,30.11,West,269,0.0,1.0,87,0.00,,,0.00,weatherlink.com 1.10,2013-02-06 06:57:00,
2013-02-05 23:12:00,42.6,39.0,30.11,WNW,294,0.0,0.0,88,0.00,,,0.00,weatherlink.com 1.10,2013-02-06 07:12:00,
2013-02-05 23:27:00,41.9,39.0,30.11,WNW,294,0.0,0.0,90,0.00,,,0.00,weatherlink.com 1.10,2013-02-06 07:27:00,
2013-02-05 23:42:00,42.4,39.0,30.11,ENE,67,0.0,2.0,89,0.00,,,0.00,weatherlink.com 1.10,2013-02-06 07:42:00,
2013-02-05 23:57:00,45.0,41.0,30.11,NE,34,0.0,4.0,85,0.00,,,0.00,weatherlink.com 1.10,2013-02-06 07:57:00,